Time;durP1;ratioP1;P1;durP2;ratioP2;P2;SDS_P1;SDS_P2;PMS_P1;PMS_P2;Temp;Humidity;BMP_temperature;BMP_pressure;BME280_temperature;BME280_humidity;BME280_pressure;Samples;Min_cycle;Max_cycle;Signal;HPM_P1;HPM_P2
2022/01/17 00:01:08;;;;;;;16.03;13.53;;;;;;;3.82;82.52;96660.84;4311765;32;20282;-59
2022/01/17 00:03:35;;;;;;;14.10;12.20;;;;;;;3.85;82.06;96659.59;4348111;32;20269;-59
2022/01/17 00:06:01;;;;;;;14.83;12.27;;;;;;;3.92;81.97;96658.53;4318997;32;20344;-59
2022/01/17 00:08:27;;;;;;;16.43;13.40;;;;;;;3.85;81.95;96654.34;4338187;32;20336;-59
2022/01/17 00:10:54;;;;;;;15.90;13.17;;;;;;;3.74;82.14;96650.62;4328261;32;20267;-59
2022/01/17 00:13:26;;;;;;;13.87;12.10;;;;;;;3.68;82.52;96648.88;4338063;32;20288;-59
2022/01/17 00:16:19;;;;;;;17.80;13.43;;;;;;;3.66;82.18;96640.41;4334363;32;20341;-60
2022/01/17 00:21:17;;;;;;;13.57;11.73;;;;;;;3.82;80.73;96650.34;4351793;32;20313;-60
2022/01/17 00:23:44;;;;;;;18.17;13.70;;;;;;;3.87;80.14;96641.81;4325074;32;20328;-63
2022/01/17 00:26:10;;;;;;;17.03;13.07;;;;;;;3.90;79.76;96642.19;4309952;32;20293;-60
2022/01/17 00:28:38;;;;;;;14.27;12.07;;;;;;;3.76;79.99;96643.31;4326516;32;20269;-59
2022/01/17 00:31:09;;;;;;;12.67;11.37;;;;;;;3.73;79.85;96641.97;4354682;32;20324;-59
2022/01/17 00:33:38;;;;;;;15.67;11.93;;;;;;;3.87;79.29;96639.19;4359484;32;20281;-59
2022/01/17 00:36:09;;;;;;;14.67;12.10;;;;;;;3.90;78.83;96641.38;4340536;32;20273;-59
2022/01/17 00:38:35;;;;;;;15.50;12.33;;;;;;;3.77;78.79;96650.19;4320192;32;20292;-59
2022/01/17 00:41:05;;;;;;;13.03;11.63;;;;;;;3.84;78.68;96648.31;4327846;32;20351;-59
2022/01/17 00:43:30;;;;;;;13.30;10.77;;;;;;;3.77;78.38;96652.78;4298744;32;20377;-59
2022/01/17 00:46:00;;;;;;;14.17;11.83;;;;;;;3.84;77.66;96647.50;4344447;32;20284;-60
2022/01/17 00:48:26;;;;;;;14.00;12.03;;;;;;;3.76;77.56;96656.44;4335071;32;20277;-59
2022/01/17 00:50:53;;;;;;;14.27;11.57;;;;;;;3.79;77.10;96658.62;4351736;32;20319;-59
2022/01/17 00:53:19;;;;;;;14.50;11.90;;;;;;;3.74;77.25;96648.78;4348703;32;20299;-59
2022/01/17 00:55:45;;;;;;;13.10;11.10;;;;;;;3.64;77.03;96648.50;4345451;32;20270;-59
2022/01/17 00:58:10;;;;;;;13.53;11.57;;;;;;;3.73;76.46;96654.28;4340505;32;20315;-59
2022/01/17 01:00:37;;;;;;;14.57;12.70;;;;;;;3.68;76.79;96660.16;4315174;32;20232;-58
2022/01/17 01:03:07;;;;;;;13.90;10.67;;;;;;;3.62;76.62;96658.41;4348658;32;20186;-59
2022/01/17 01:05:37;;;;;;;14.23;11.50;;;;;;;3.58;76.56;96653.78;4349860;32;20292;-58
2022/01/17 01:08:04;;;;;;;13.57;11.23;;;;;;;3.38;77.33;96662.63;4333093;32;20278;-58
2022/01/17 01:10:31;;;;;;;13.97;10.97;;;;;;;3.59;76.30;96658.03;4329175;32;20276;-58
2022/01/17 01:12:57;;;;;;;14.53;11.93;;;;;;;3.68;75.93;96659.38;4330812;32;20266;-59
2022/01/17 01:18:19;;;;;;;13.20;9.37;;;;;;;3.68;75.58;96673.28;4338762;32;20190;-59
2022/01/17 01:28:44;;;;;;;12.20;10.60;;;;;;;3.64;76.06;96673.94;4348807;32;20284;-58
2022/01/17 01:31:22;;;;;;;11.97;10.67;;;;;;;3.70;75.72;96683.56;4324676;32;20288;-58
2022/01/17 01:33:54;;;;;;;12.87;10.20;;;;;;;3.51;76.18;96674.84;4321881;32;20397;-59
2022/01/17 01:36:28;;;;;;;13.23;10.13;;;;;;;3.59;75.74;96665.91;4337970;32;20270;-59
2022/01/17 01:38:53;;;;;;;12.13;9.57;;;;;;;3.64;75.09;96673.94;4341409;32;20279;-59
2022/01/17 01:41:20;;;;;;;10.07;9.07;;;;;;;3.75;74.36;96676.63;4331294;32;20357;-61
2022/01/17 01:43:51;;;;;;;10.43;9.13;;;;;;;3.69;74.50;96671.47;4327803;32;20185;-59
2022/01/17 01:46:20;;;;;;;10.17;9.07;;;;;;;3.77;73.95;96677.22;4313491;32;20274;-60
2022/01/17 01:48:46;;;;;;;12.83;9.07;;;;;;;3.74;73.81;96669.00;4339110;32;20353;-59
2022/01/17 01:51:14;;;;;;;10.10;8.73;;;;;;;3.57;74.32;96676.59;4337585;32;20351;-59
2022/01/17 01:53:40;;;;;;;10.23;8.53;;;;;;;3.73;74.15;96664.78;4340086;32;20357;-60
2022/01/17 01:56:07;;;;;;;8.93;8.03;;;;;;;3.83;73.53;96662.44;4336579;32;20274;-59
2022/01/17 01:58:34;;;;;;;8.60;7.57;;;;;;;3.77;74.22;96658.03;4333805;32;20205;-59
2022/01/17 02:01:04;;;;;;;10.10;8.40;;;;;;;3.50;74.75;96656.72;4342730;32;20486;-59
2022/01/17 02:03:30;;;;;;;8.20;7.03;;;;;;;3.51;75.21;96642.56;4325027;32;20304;-58
2022/01/17 02:05:55;;;;;;;7.70;6.90;;;;;;;3.36;76.00;96627.97;4342776;32;20273;-58
2022/01/17 02:08:24;;;;;;;10.67;7.13;;;;;;;3.60;75.28;96630.78;4344592;32;20299;-58
2022/01/17 02:10:50;;;;;;;7.90;6.97;;;;;;;3.71;74.97;96624.81;4340769;32;20252;-59
2022/01/17 02:13:16;;;;;;;9.47;7.60;;;;;;;3.51;75.47;96627.66;4351059;32;20328;-58
2022/01/17 02:15:46;;;;;;;7.87;7.10;;;;;;;3.62;75.10;96633.97;4344597;32;20295;-58
2022/01/17 02:18:19;;;;;;;6.23;5.63;;;;;;;3.64;74.88;96619.63;4354679;32;20277;-59
2022/01/17 02:21:09;;;;;;;8.97;6.90;;;;;;;3.62;74.43;96618.25;4346387;32;20288;-59
2022/01/17 02:23:35;;;;;;;6.80;6.20;;;;;;;3.58;74.23;96622.31;4344283;32;20366;-59
2022/01/17 02:26:01;;;;;;;9.47;6.10;;;;;;;3.75;73.62;96623.34;4352445;32;20278;-59
2022/01/17 02:28:27;;;;;;;6.80;6.17;;;;;;;3.84;72.99;96622.06;4318582;32;20344;-59
2022/01/17 02:30:54;;;;;;;7.20;6.20;;;;;;;3.79;72.99;96620.06;4327285;32;20228;-59
2022/01/17 02:33:20;;;;;;;7.17;6.47;;;;;;;3.75;72.75;96618.91;4343241;32;20278;-59
2022/01/17 02:35:47;;;;;;;5.60;5.10;;;;;;;3.67;72.82;96621.03;4338498;32;20383;-58
2022/01/17 02:38:13;;;;;;;6.70;6.00;;;;;;;3.68;72.82;96627.88;4339314;32;20387;-59
2022/01/17 02:40:38;;;;;;;6.10;5.50;;;;;;;3.73;72.49;96630.66;4353023;32;20270;-60
2022/01/17 02:43:07;;;;;;;6.30;5.70;;;;;;;3.73;72.45;96631.47;4343214;32;20181;-58
2022/01/17 02:46:24;;;;;;;5.60;5.10;;;;;;;3.76;72.19;96622.31;4346985;32;20193;-59
2022/01/17 02:48:30;;;;;;;5.57;5.07;;;;;;;3.72;72.33;96619.38;4354494;32;20277;-59
2022/01/17 02:50:57;;;;;;;5.57;4.93;;;;;;;3.85;72.39;96618.41;4345119;32;20316;-59
2022/01/17 02:53:24;;;;;;;5.67;5.17;;;;;;;3.68;73.53;96626.06;4308673;33;20301;-59
2022/01/17 02:55:51;;;;;;;8.07;5.27;;;;;;;3.76;73.80;96612.62;4346206;32;20280;-59
2022/01/17 02:58:20;;;;;;;6.30;5.70;;;;;;;3.68;74.17;96612.13;4336104;32;20294;-60
2022/01/17 03:00:47;;;;;;;6.80;6.00;;;;;;;3.62;75.04;96605.12;4310887;32;20282;-59
2022/01/17 03:03:15;;;;;;;6.80;6.20;;;;;;;3.59;75.29;96605.56;4335631;32;20308;-59
2022/01/17 03:05:43;;;;;;;6.37;5.77;;;;;;;3.67;75.27;96595.59;4304768;32;20304;-59
2022/01/17 03:08:10;;;;;;;7.17;6.10;;;;;;;3.54;75.97;96589.66;4329711;32;20300;-58
2022/01/17 03:10:43;;;;;;;6.77;5.57;;;;;;;3.89;75.09;96576.78;4322168;32;20337;-58
2022/01/17 03:13:24;;;;;;;6.20;5.60;;;;;;;3.80;75.44;96578.87;4338324;32;20261;-59
2022/01/17 03:15:55;;;;;;;7.47;5.47;;;;;;;3.88;74.93;96585.69;4359753;32;20273;-58
2022/01/17 03:18:30;;;;;;;5.57;5.10;;;;;;;3.72;75.67;96587.06;4308921;32;20362;-58
2022/01/17 03:20:58;;;;;;;7.10;6.37;;;;;;;3.83;75.03;96578.47;4315732;32;20273;-58
2022/01/17 03:23:24;;;;;;;7.47;5.53;;;;;;;3.78;74.83;96575.69;4350755;32;20313;-59
2022/01/17 03:25:49;;;;;;;6.13;5.40;;;;;;;3.80;74.99;96584.94;4349306;32;20273;-60
2022/01/17 03:28:17;;;;;;;6.23;5.40;;;;;;;3.85;74.82;96589.53;4334247;32;20331;-58
2022/01/17 03:30:43;;;;;;;5.40;4.90;;;;;;;3.97;74.20;96606.16;4332182;32;20239;-58
2022/01/17 03:33:11;;;;;;;6.63;5.43;;;;;;;3.66;75.27;96590.56;4345291;32;20274;-65
2022/01/17 03:35:38;;;;;;;6.67;6.07;;;;;;;3.69;75.42;96592.75;4339281;32;20217;-59
2022/01/17 03:38:05;;;;;;;5.63;5.13;;;;;;;3.71;75.53;96606.47;4331456;32;20348;-59
2022/01/17 03:40:32;;;;;;;5.40;4.97;;;;;;;3.73;75.56;96604.41;4286127;32;20302;-59
2022/01/17 03:42:58;;;;;;;6.23;5.50;;;;;;;3.74;75.75;96598.94;4330331;32;20277;-58
2022/01/17 03:45:25;;;;;;;6.87;6.03;;;;;;;3.73;75.99;96604.41;4331842;32;20274;-58
2022/01/17 03:47:51;;;;;;;6.87;6.17;;;;;;;3.77;76.11;96610.81;4340091;32;20372;-59
2022/01/17 03:50:20;;;;;;;5.43;5.03;;;;;;;3.67;76.73;96621.03;4349021;32;20278;-58
2022/01/17 03:52:46;;;;;;;5.63;5.10;;;;;;;3.52;77.46;96620.56;4341445;32;20282;-59
2022/01/17 03:55:18;;;;;;;6.53;5.83;;;;;;;3.55;77.84;96601.75;4353713;32;20437;-58
2022/01/17 03:57:44;;;;;;;6.80;6.13;;;;;;;3.43;78.07;96599.84;4352542;32;20327;-58
2022/01/17 04:00:21;;;;;;;6.03;5.53;;;;;;;3.54;78.38;96584.41;4343276;32;20282;-59
2022/01/17 04:02:48;;;;;;;6.50;5.80;;;;;;;3.40;79.08;96584.56;4320032;32;20180;-59
2022/01/17 04:05:13;;;;;;;6.87;6.13;;;;;;;3.58;79.20;96561.97;4332937;32;20395;-59
2022/01/17 04:07:40;;;;;;;5.93;5.40;;;;;;;3.40;79.47;96576.69;4354999;32;20333;-59
2022/01/17 04:10:07;;;;;;;7.97;6.13;;;;;;;3.47;80.16;96562.72;4333013;32;20181;-58
2022/01/17 04:12:33;;;;;;;6.30;5.70;;;;;;;3.57;80.30;96558.56;4332294;32;20270;-59
2022/01/17 04:15:01;;;;;;;7.20;6.50;;;;;;;3.56;80.33;96550.91;4336650;32;20316;-59
2022/01/17 04:17:29;;;;;;;6.17;5.57;;;;;;;3.52;81.13;96561.06;4331008;32;20288;-59
2022/01/17 04:20:05;;;;;;;5.77;5.30;;;;;;;3.56;80.85;96572.69;4326831;32;20300;-59
2022/01/17 04:22:38;;;;;;;5.77;5.27;;;;;;;3.72;80.34;96587.06;4318947;32;20276;-59
2022/01/17 04:25:08;;;;;;;6.17;5.57;;;;;;;3.64;80.72;96601.28;4302189;32;20289;-59
2022/01/17 04:27:35;;;;;;;5.73;5.27;;;;;;;3.67;80.30;96597.41;4337982;32;20277;-60
2022/01/17 04:30:01;;;;;;;5.77;5.20;;;;;;;3.60;81.09;96617.66;4334367;32;20270;-59
2022/01/17 04:32:27;;;;;;;6.00;5.47;;;;;;;3.80;80.45;96616.44;4345512;32;20294;-58
2022/01/17 04:34:54;;;;;;;6.47;5.87;;;;;;;3.91;79.76;96620.16;4355674;32;20246;-59
2022/01/17 04:37:21;;;;;;;7.10;6.50;;;;;;;3.85;79.88;96628.91;4322930;32;20274;-58
2022/01/17 04:39:47;;;;;;;6.90;5.97;;;;;;;3.75;80.11;96628.59;4326535;32;20286;-59
2022/01/17 04:42:16;;;;;;;6.00;5.40;;;;;;;3.71;80.03;96615.13;4339644;32;20266;-65
2022/01/17 04:47:31;;;;;;;6.30;5.70;;;;;;;3.79;80.17;96619.28;4310528;32;20293;-59
2022/01/17 04:49:57;;;;;;;6.57;5.97;;;;;;;3.68;80.08;96627.88;4335576;32;20352;-59
2022/01/17 04:52:25;;;;;;;5.80;5.30;;;;;;;3.70;80.17;96644.22;4340827;32;20313;-59
2022/01/17 04:54:53;;;;;;;6.27;5.67;;;;;;;3.69;80.28;96637.34;4354049;32;20404;-59
2022/01/17 04:57:21;;;;;;;5.70;5.20;;;;;;;3.70;80.49;96649.47;4342843;32;20281;-58
2022/01/17 04:59:49;;;;;;;6.23;5.17;;;;;;;3.79;80.18;96656.81;4348796;32;20277;-59
2022/01/17 05:02:16;;;;;;;6.50;5.70;;;;;;;3.87;80.01;96658.38;4294423;32;20336;-59
2022/01/17 05:04:45;;;;;;;6.07;5.57;;;;;;;3.95;79.56;96676.44;4326145;32;20274;-59
2022/01/17 05:07:11;;;;;;;5.37;4.97;;;;;;;3.98;79.24;96685.69;4321013;32;20278;-59
2022/01/17 05:09:43;;;;;;;6.30;5.77;;;;;;;3.99;79.29;96671.56;4312886;32;20298;-58
2022/01/17 05:12:12;;;;;;;7.47;6.03;;;;;;;3.95;79.43;96649.41;4307037;32;20279;-59
2022/01/17 05:14:42;;;;;;;6.10;5.50;;;;;;;3.93;79.53;96630.44;4344850;32;20316;-59
2022/01/17 05:17:33;;;;;;;5.93;5.33;;;;;;;3.71;80.17;96628.25;4326907;32;20285;-60
2022/01/17 05:19:58;;;;;;;6.27;5.77;;;;;;;3.80;80.24;96618.25;4310263;32;20285;-59
2022/01/17 05:22:29;;;;;;;5.73;5.33;;;;;;;3.68;80.91;96615.56;4330017;32;20340;-58
2022/01/17 05:24:55;;;;;;;6.10;5.60;;;;;;;3.77;80.19;96614.25;4340036;32;20293;-59
2022/01/17 05:27:22;;;;;;;5.40;5.00;;;;;;;3.82;79.85;96618.84;4311390;32;20270;-58
2022/01/17 05:29:54;;;;;;;6.30;5.43;;;;;;;3.69;80.44;96624.25;4326388;32;20256;-59
2022/01/17 05:32:20;;;;;;;7.17;5.93;;;;;;;3.70;80.92;96615.34;4348211;32;20291;-59
2022/01/17 05:34:48;;;;;;;7.20;5.80;;;;;;;3.85;79.99;96621.03;4331485;32;20282;-58
2022/01/17 05:37:13;;;;;;;5.43;5.00;;;;;;;3.84;79.67;96623.87;4336278;32;20225;-59
2022/01/17 05:39:39;;;;;;;5.27;4.87;;;;;;;3.92;79.69;96624.41;4332093;32;20270;-58
2022/01/17 05:42:08;;;;;;;5.20;4.80;;;;;;;3.83;79.78;96625.69;4296171;32;20218;-59
2022/01/17 05:44:33;;;;;;;5.17;4.77;;;;;;;3.64;80.59;96643.25;4318291;32;20292;-59
2022/01/17 05:46:59;;;;;;;5.20;4.80;;;;;;;3.82;79.99;96625.91;4327604;32;20278;-58
2022/01/17 05:49:26;;;;;;;5.70;5.20;;;;;;;3.73;79.98;96617.53;4351078;32;20189;-59
2022/01/17 05:51:53;;;;;;;5.43;4.93;;;;;;;3.84;79.55;96626.50;4334914;32;20283;-59
2022/01/17 05:54:18;;;;;;;5.23;4.83;;;;;;;3.83;79.73;96644.06;4346176;32;20285;-58
2022/01/17 05:56:45;;;;;;;5.17;4.77;;;;;;;4.04;78.99;96633.13;4350972;32;20337;-59
2022/01/17 05:59:10;;;;;;;5.60;5.10;;;;;;;4.01;79.05;96638.03;4353554;32;20177;-59
2022/01/17 06:01:40;;;;;;;5.77;5.17;;;;;;;3.78;79.61;96643.91;4302841;32;20388;-59
2022/01/17 06:04:07;;;;;;;4.93;4.53;;;;;;;4.02;78.89;96644.88;4328461;32;20181;-60
2022/01/17 06:06:32;;;;;;;5.27;4.77;;;;;;;4.14;78.57;96646.56;4341056;32;20286;-59
2022/01/17 06:09:03;;;;;;;5.20;4.80;;;;;;;4.20;78.45;96670.31;4329828;32;20292;-59
2022/01/17 06:11:29;;;;;;;5.80;5.30;;;;;;;3.97;78.81;96669.16;4352569;32;20193;-59
2022/01/17 06:13:55;;;;;;;4.97;4.57;;;;;;;3.77;79.71;96665.91;4321074;32;20295;-58
2022/01/17 06:16:20;;;;;;;5.70;5.20;;;;;;;3.94;78.96;96669.59;4341987;32;20177;-60
2022/01/17 06:18:45;;;;;;;6.07;5.57;;;;;;;3.92;79.21;96661.16;4329603;32;20367;-59
2022/01/17 06:21:11;;;;;;;5.30;4.90;;;;;;;3.92;79.06;96663.78;4331914;32;20194;-60
2022/01/17 06:23:36;;;;;;;5.37;4.87;;;;;;;4.01;78.99;96654.56;4333855;32;20185;-59
2022/01/17 06:26:05;;;;;;;5.27;4.87;;;;;;;4.14;78.39;96651.81;4308882;32;20207;-60
2022/01/17 06:28:32;;;;;;;5.80;5.20;;;;;;;4.18;78.35;96664.47;4296266;32;20185;-59
2022/01/17 06:30:57;;;;;;;4.73;4.43;;;;;;;3.95;78.75;96644.94;4288859;32;20286;-60
2022/01/17 06:33:24;;;;;;;5.67;5.17;;;;;;;4.04;79.01;96642.84;4354803;32;20406;-59
2022/01/17 06:35:50;;;;;;;5.37;4.90;;;;;;;4.11;78.68;96643.56;4340315;32;20185;-59
2022/01/17 06:38:17;;;;;;;5.63;5.13;;;;;;;4.01;78.74;96643.28;4363320;32;20299;-59
2022/01/17 06:40:43;;;;;;;5.70;4.80;;;;;;;4.09;78.84;96646.41;4352080;32;20314;-59
2022/01/17 06:43:10;;;;;;;8.33;4.63;;;;;;;4.27;78.06;96650.06;4358451;32;20277;-59
2022/01/17 06:45:36;;;;;;;5.23;4.73;;;;;;;4.35;77.57;96650.56;4316537;32;20243;-59
2022/01/17 06:48:08;;;;;;;5.13;4.67;;;;;;;4.29;77.77;96638.31;4346798;32;20274;-60
2022/01/17 06:50:33;;;;;;;5.40;4.90;;;;;;;4.29;77.66;96646.19;4352855;32;20195;-59
2022/01/17 06:52:59;;;;;;;5.53;5.03;;;;;;;4.21;77.99;96656.16;4332732;32;20278;-59
2022/01/17 06:55:27;;;;;;;4.83;4.37;;;;;;;4.08;78.64;96649.25;4345388;32;20197;-59
2022/01/17 06:57:56;;;;;;;5.53;5.07;;;;;;;4.12;78.42;96645.19;4314082;32;20194;-59
2022/01/17 07:00:29;;;;;;;7.03;4.47;;;;;;;4.32;77.89;96639.69;4346816;32;20276;-59
2022/01/17 07:02:56;;;;;;;4.73;4.33;;;;;;;4.22;77.95;96642.03;4328080;32;20283;-59
2022/01/17 07:05:22;;;;;;;5.30;4.80;;;;;;;4.23;78.04;96633.13;4344769;32;20277;-59
2022/01/17 07:07:50;;;;;;;6.17;4.93;;;;;;;4.14;78.67;96625.56;4331590;32;20270;-58
2022/01/17 07:10:20;;;;;;;4.97;4.57;;;;;;;4.23;78.28;96623.41;4354475;32;20310;-59
2022/01/17 07:12:45;;;;;;;8.00;5.10;;;;;;;4.35;77.77;96634.00;4351900;32;20395;-59
2022/01/17 07:15:12;;;;;;;4.73;4.33;;;;;;;4.34;77.85;96664.72;4362915;32;20266;-61
2022/01/17 07:17:37;;;;;;;5.37;4.87;;;;;;;4.22;78.40;96673.53;4374080;32;20215;-59
2022/01/17 07:20:05;;;;;;;5.80;4.47;;;;;;;4.26;78.42;96690.47;4351674;32;20275;-59
2022/01/17 07:22:33;;;;;;;5.03;4.27;;;;;;;4.36;78.06;96707.34;4345980;32;20276;-60
2022/01/17 07:25:00;;;;;;;5.30;4.80;;;;;;;4.27;78.54;96727.00;4348916;32;20388;-59
2022/01/17 07:27:26;;;;;;;5.27;4.80;;;;;;;4.30;78.47;96746.78;4312389;32;20275;-58
2022/01/17 07:29:52;;;;;;;6.57;4.77;;;;;;;4.29;78.37;96755.69;4328733;32;20361;-59
2022/01/17 07:32:19;;;;;;;4.77;4.37;;;;;;;4.29;78.38;96766.19;4342242;32;20273;-59
2022/01/17 07:34:46;;;;;;;5.03;4.63;;;;;;;4.27;78.38;96773.47;4350954;32;20362;-60
2022/01/17 07:37:13;;;;;;;5.53;5.03;;;;;;;4.33;78.40;96804.16;4365053;32;20299;-63
2022/01/17 07:39:38;;;;;;;4.67;4.27;;;;;;;4.41;78.24;96822.25;4360775;32;20320;-59
2022/01/17 07:42:04;;;;;;;35.90;6.03;;;;;;;4.50;77.81;96797.31;4344994;32;20300;-60
2022/01/17 07:44:30;;;;;;;32.50;5.20;;;;;;;5.53;90.55;96769.09;4340625;32;20189;-61
2022/01/17 07:47:00;;;;;;;24.77;4.10;;;;;;;8.36;92.24;96739.78;4367666;32;20208;-61
2022/01/17 07:49:30;;;;;;;9.57;3.87;;;;;;;9.76;78.59;96727.59;4353902;32;20281;-60
2022/01/17 07:52:09;;;;;;;3.57;3.27;;;;;;;11.06;66.41;96746.37;4326975;32;20305;-61
2022/01/17 07:54:43;;;;;;;4.53;4.13;;;;;;;11.61;60.44;96741.19;4355355;32;20375;-62
2022/01/17 07:57:12;;;;;;;4.23;3.93;;;;;;;11.11;54.41;96730.47;4343796;32;20211;-60
2022/01/17 07:59:39;;;;;;;4.00;3.70;;;;;;;9.31;58.11;96731.41;4283898;32;20197;-62
2022/01/17 08:02:06;;;;;;;4.33;3.93;;;;;;;7.96;62.59;96719.62;4358163;32;20277;-60
2022/01/17 08:04:33;;;;;;;4.80;4.40;;;;;;;7.20;65.99;96716.56;4315255;32;20420;-58
2022/01/17 08:07:00;;;;;;;5.23;4.03;;;;;;;6.17;70.15;96727.97;4306561;32;20274;-59
2022/01/17 08:09:30;;;;;;;6.53;4.37;;;;;;;5.74;72.65;96719.56;4348536;32;20295;-60
2022/01/17 08:11:59;;;;;;;4.70;4.17;;;;;;;5.26;74.87;96740.75;4361885;32;20277;-60
2022/01/17 08:14:26;;;;;;;4.50;4.10;;;;;;;5.03;75.79;96751.97;4321745;32;20324;-59
2022/01/17 08:16:57;;;;;;;5.63;3.90;;;;;;;5.18;76.00;96761.09;4346873;32;20329;-57
2022/01/17 08:19:25;;;;;;;4.17;3.80;;;;;;;5.23;76.25;96751.72;4346173;32;20318;-59
2022/01/17 08:21:52;;;;;;;5.93;4.20;;;;;;;5.02;77.09;96745.91;4345078;32;20304;-60
2022/01/17 08:24:25;;;;;;;5.77;4.33;;;;;;;5.10;77.45;96750.88;4327681;32;20288;-59
2022/01/17 08:26:51;;;;;;;4.90;4.47;;;;;;;4.92;78.23;96756.19;4334072;32;20322;-61
2022/01/17 08:29:18;;;;;;;4.40;4.03;;;;;;;4.80;78.57;96763.19;4313397;32;20277;-60
2022/01/17 08:31:46;;;;;;;5.00;4.57;;;;;;;4.96;78.52;96759.97;4312199;32;20201;-59
2022/01/17 08:34:15;;;;;;;4.50;4.10;;;;;;;4.94;78.68;96761.22;4324525;32;20269;-64
2022/01/17 08:36:41;;;;;;;4.77;4.27;;;;;;;5.02;78.63;96758.25;4350768;32;20288;-59
2022/01/17 08:39:07;;;;;;;5.83;4.70;;;;;;;4.91;78.96;96749.31;4322136;32;20279;-60
2022/01/17 08:41:34;;;;;;;4.87;4.33;;;;;;;5.06;79.06;96747.09;4332129;32;20189;-59
2022/01/17 08:43:59;;;;;;;5.40;4.90;;;;;;;4.93;79.36;96752.53;4333093;32;20303;-62
2022/01/17 08:46:26;;;;;;;5.43;4.97;;;;;;;4.98;79.58;96762.37;4345569;32;20281;-60
2022/01/17 08:48:53;;;;;;;5.50;4.80;;;;;;;5.06;79.24;96743.66;4365971;32;20204;-60
2022/01/17 08:51:18;;;;;;;4.57;4.20;;;;;;;5.02;79.68;96732.78;4337028;32;20312;-61
2022/01/17 08:53:44;;;;;;;5.37;4.90;;;;;;;5.07;79.31;96709.25;4343253;32;20391;-62
2022/01/17 08:56:10;;;;;;;5.07;4.67;;;;;;;5.00;80.11;96710.34;4357454;32;20177;-62
2022/01/17 08:58:37;;;;;;;5.97;5.33;;;;;;;4.88;80.83;96723.47;4353742;32;20273;-59
2022/01/17 09:01:05;;;;;;;4.73;4.33;;;;;;;4.92;81.09;96734.34;4327419;32;20247;-60
2022/01/17 09:03:33;;;;;;;4.87;4.47;;;;;;;5.12;80.38;96740.94;4344839;32;20281;-60
2022/01/17 09:06:00;;;;;;;6.03;4.60;;;;;;;4.77;81.29;96761.84;4349598;32;20311;-59
2022/01/17 09:08:27;;;;;;;5.20;4.80;;;;;;;5.01;80.59;96764.53;4265928;32;20293;-59
2022/01/17 09:10:57;;;;;;;6.63;4.33;;;;;;;4.98;81.17;96750.03;4321452;32;20303;-59
2022/01/17 09:13:25;;;;;;;5.33;4.33;;;;;;;5.28;79.77;96739.50;4341928;32;20304;-59
2022/01/17 09:15:57;;;;;;;4.90;4.50;;;;;;;5.35;79.09;96724.44;4322167;32;20315;-58
2022/01/17 09:18:25;;;;;;;5.30;4.90;;;;;;;5.23;79.74;96746.44;4330319;32;20277;-59
2022/01/17 09:20:51;;;;;;;4.70;4.30;;;;;;;5.43;78.81;96755.66;4314978;32;20309;-59
2022/01/17 09:23:18;;;;;;;6.27;4.47;;;;;;;5.35;79.02;96760.47;4324767;32;20321;-58
2022/01/17 09:25:51;;;;;;;5.30;4.80;;;;;;;5.48;78.75;96786.56;4330554;32;20197;-60
2022/01/17 09:28:16;;;;;;;5.00;4.00;;;;;;;5.46;78.50;96804.41;4333616;32;20272;-60
2022/01/17 09:30:43;;;;;;;5.10;4.43;;;;;;;5.66;78.30;96796.22;4327117;32;20266;-60
2022/01/17 09:33:11;;;;;;;6.80;4.90;;;;;;;5.50;78.37;96780.06;4353870;32;20292;-59
2022/01/17 09:35:37;;;;;;;5.17;4.60;;;;;;;5.43;78.23;96771.44;4337297;32;20178;-59
2022/01/17 09:38:05;;;;;;;5.37;4.93;;;;;;;5.30;78.81;96776.91;4336609;32;20439;-62
2022/01/17 09:40:33;;;;;;;7.67;5.50;;;;;;;5.55;78.13;96760.16;4356271;32;20281;-61
2022/01/17 09:42:59;;;;;;;5.10;4.70;;;;;;;5.39;78.68;96751.91;4336322;32;20265;-61
2022/01/17 09:45:28;;;;;;;5.97;4.60;;;;;;;5.36;79.08;96765.50;4359101;32;20277;-61
2022/01/17 09:47:53;;;;;;;4.27;3.80;;;;;;;5.45;78.58;96769.41;4325712;32;20278;-61
2022/01/17 09:50:32;;;;;;;5.27;4.57;;;;;;;5.75;77.64;96779.91;4338221;32;20315;-62
2022/01/17 09:52:59;;;;;;;5.00;4.60;;;;;;;5.80;77.60;96787.13;4314162;32;20296;-61
2022/01/17 09:55:36;;;;;;;5.83;4.20;;;;;;;5.78;77.40;96776.00;4357598;32;20387;-63
2022/01/17 09:58:08;;;;;;;4.63;4.30;;;;;;;5.78;77.08;96783.91;4367397;32;20321;-61
2022/01/17 10:00:38;;;;;;;7.23;4.70;;;;;;;5.93;76.88;96776.41;4364255;32;20344;-65
2022/01/17 10:03:08;;;;;;;6.27;4.23;;;;;;;5.91;76.37;96791.63;4339905;32;20372;-60
2022/01/17 10:05:38;;;;;;;5.07;4.60;;;;;;;5.90;77.09;96784.75;4331783;32;20315;-62
2022/01/17 10:08:15;;;;;;;4.70;4.03;;;;;;;5.93;76.45;96789.56;4324345;32;20348;-62
2022/01/17 10:10:57;;;;;;;4.47;4.07;;;;;;;6.10;76.20;96790.50;4354253;32;20281;-61
2022/01/17 10:13:30;;;;;;;4.50;4.10;;;;;;;6.16;75.23;96788.78;4360820;32;20344;-63
2022/01/17 10:16:21;;;;;;;4.23;3.93;;;;;;;5.98;75.80;96786.25;4346458;32;20273;-60
2022/01/17 10:18:55;;;;;;;4.63;4.30;;;;;;;6.31;74.95;96764.59;4350519;32;20277;-60
2022/01/17 10:21:33;;;;;;;4.83;4.43;;;;;;;6.07;75.55;96769.87;4323062;32;20451;-61
2022/01/17 10:24:19;;;;;;;4.43;4.13;;;;;;;5.92;75.45;96753.72;4340881;32;20281;-61
2022/01/17 10:34:55;;;;;;;6.80;3.87;;;;;;;6.32;74.49;96737.22;4341533;32;20300;-61
2022/01/17 10:37:24;;;;;;;6.03;4.37;;;;;;;6.21;74.58;96744.13;4303353;32;20361;-63
2022/01/17 10:40:12;;;;;;;3.90;3.70;;;;;;;6.42;74.70;96746.16;4291038;32;20338;-62
2022/01/17 10:43:02;;;;;;;4.00;3.70;;;;;;;6.29;74.19;96745.59;4293610;32;20349;-60
2022/01/17 10:45:33;;;;;;;3.67;3.33;;;;;;;6.19;75.01;96749.62;4290565;32;20301;-59
2022/01/17 10:48:01;;;;;;;4.40;4.00;;;;;;;5.97;74.59;96738.06;4314638;32;20288;-59
2022/01/17 10:50:34;;;;;;;4.37;3.97;;;;;;;6.02;75.52;96740.81;4337499;32;20281;-64
2022/01/17 10:53:04;;;;;;;4.80;4.20;;;;;;;6.06;75.25;96739.28;4309772;32;20287;-62
2022/01/17 10:55:40;;;;;;;4.87;3.83;;;;;;;6.20;74.82;96761.75;4340975;32;20269;-60
2022/01/17 10:58:32;;;;;;;3.63;3.43;;;;;;;6.34;74.26;96758.88;4323730;32;20384;-61
2022/01/17 11:01:20;;;;;;;4.13;3.70;;;;;;;6.36;74.60;96757.62;4327914;32;20288;-63
2022/01/17 11:03:48;;;;;;;5.87;3.40;;;;;;;6.55;73.44;96753.81;4328669;32;20357;-62
2022/01/17 11:06:28;;;;;;;3.60;3.30;;;;;;;6.53;73.49;96749.81;4319175;32;20297;-62
2022/01/17 11:08:53;;;;;;;3.80;3.40;;;;;;;6.56;72.97;96751.97;4332110;32;20294;-64
2022/01/17 11:11:22;;;;;;;4.57;3.50;;;;;;;6.68;72.86;96755.38;4306577;32;20273;-61
2022/01/17 11:13:54;;;;;;;3.50;3.30;;;;;;;6.61;72.34;96769.75;4326184;32;20184;-62
2022/01/17 11:16:23;;;;;;;4.13;2.87;;;;;;;6.57;73.07;96758.84;4327721;32;20267;-63
2022/01/17 11:19:21;;;;;;;3.33;3.13;;;;;;;6.46;72.59;96763.09;4344625;32;20266;-64
2022/01/17 11:21:46;;;;;;;3.63;3.10;;;;;;;6.60;72.61;96763.66;4339019;32;20342;-63
2022/01/17 11:24:11;;;;;;;4.00;3.60;;;;;;;6.42;72.37;96748.00;4359565;32;20286;-63
2022/01/17 11:26:38;;;;;;;3.57;3.27;;;;;;;6.40;72.91;96763.25;4351756;32;20181;-63
2022/01/17 11:29:26;;;;;;;3.40;3.20;;;;;;;6.23;73.65;96763.16;4344136;32;20285;-63
2022/01/17 11:31:53;;;;;;;3.30;3.00;;;;;;;6.36;73.27;96757.62;4336168;32;20278;-62
2022/01/17 11:34:23;;;;;;;3.60;3.30;;;;;;;6.38;73.44;96770.56;4331105;32;20277;-62
2022/01/17 11:36:57;;;;;;;6.53;3.80;;;;;;;6.40;73.92;96761.41;4325410;32;20269;-62
2022/01/17 11:39:23;;;;;;;3.33;3.13;;;;;;;6.27;73.52;96747.66;4342590;32;20276;-62
2022/01/17 11:41:49;;;;;;;5.77;3.20;;;;;;;6.48;73.36;96744.41;4334162;32;20295;-63
2022/01/17 11:44:34;;;;;;;5.10;3.50;;;;;;;6.35;73.87;96745.47;4343306;32;20190;-63
2022/01/17 11:47:02;;;;;;;3.63;3.30;;;;;;;6.40;73.49;96735.06;4321469;32;20282;-63
2022/01/17 11:49:35;;;;;;;4.07;3.70;;;;;;;6.45;72.79;96729.06;4314476;32;20282;-63
2022/01/17 11:52:07;;;;;;;3.93;3.67;;;;;;;6.37;73.57;96747.88;4335667;32;20270;-63
2022/01/17 11:54:45;;;;;;;5.03;3.40;;;;;;;6.45;73.13;96732.50;4320238;32;20430;-63
2022/01/17 11:57:20;;;;;;;4.93;3.53;;;;;;;6.32;73.01;96735.41;4312141;32;20277;-62
2022/01/17 11:59:51;;;;;;;4.23;3.53;;;;;;;6.40;73.54;96752.69;4288309;32;20274;-63
2022/01/17 12:02:37;;;;;;;3.33;3.10;;;;;;;6.47;72.95;96763.91;4307639;32;20343;-63
2022/01/17 12:05:07;;;;;;;4.67;3.53;;;;;;;6.67;72.67;96759.06;4301363;32;20381;-62
2022/01/17 12:07:52;;;;;;;5.87;3.23;;;;;;;6.67;71.86;96760.88;4316517;32;20346;-63
2022/01/17 12:10:38;;;;;;;4.50;3.30;;;;;;;6.76;71.45;96752.41;4338020;32;20269;-63
2022/01/17 12:13:41;;;;;;;4.77;3.37;;;;;;;6.69;71.47;96767.53;4310202;32;20331;-62